createdAt,value
2019-04-01T00:01:12.422Z,102282.32
2019-04-01T00:03:43.655Z,102288.35
2019-04-01T00:06:14.812Z,102290.29
2019-04-01T00:08:47.096Z,102293.58
2019-04-01T00:11:18.324Z,102285.85
2019-04-01T00:13:49.537Z,102286.87
2019-04-01T00:16:20.802Z,102284.37
2019-04-01T00:19:02.900Z,102287.66
2019-04-01T00:21:25.974Z,102290.39
2019-04-01T00:23:57.219Z,102290.48
2019-04-01T00:26:28.506Z,102301.98
2019-04-01T00:28:59.699Z,102298.19
2019-04-01T00:31:30.936Z,102303.53
2019-04-01T00:34:02.150Z,102299.86
2019-04-01T00:36:33.259Z,102302.72
2019-04-01T00:39:06.462Z,102306.89
2019-04-01T00:41:47.084Z,102304.95
2019-04-01T00:44:18.253Z,102302.58
2019-04-01T00:46:49.498Z,102301.39
2019-04-01T00:49:20.698Z,102302.27
2019-04-01T00:51:51.908Z,102300.83
2019-04-01T00:54:23.099Z,102297.16
2019-04-01T00:56:54.265Z,102300.14
2019-04-01T00:59:25.675Z,102294.27
2019-04-01T01:01:56.865Z,102296.89
2019-04-01T01:04:28.062Z,102293.97
2019-04-01T01:06:59.347Z,102296.45
2019-04-01T01:09:30.474Z,102305.47
2019-04-01T01:12:01.633Z,102303.34
2019-04-01T01:14:32.924Z,102301.39
2019-04-01T01:17:04.136Z,102303.84
2019-04-01T01:19:35.319Z,102302.81
2019-04-01T01:22:06.441Z,102304.13
2019-04-01T01:24:37.641Z,102302.27
2019-04-01T01:27:08.797Z,102301.20
2019-04-01T01:29:40.022Z,102302.00
2019-04-01T01:32:11.232Z,102295.33
2019-04-01T01:34:42.446Z,102305.10
2019-04-01T01:37:13.609Z,102294.39
2019-04-01T01:39:44.792Z,102300.61
2019-04-01T01:42:16.017Z,102298.24
2019-04-01T01:44:47.179Z,102297.19
2019-04-01T01:47:18.390Z,102297.46
2019-04-01T01:49:49.535Z,102309.22
2019-04-01T01:52:20.684Z,102303.69
2019-04-01T01:54:53.011Z,102302.87
2019-04-01T01:57:24.169Z,102303.91
2019-04-01T01:59:55.874Z,102299.17
2019-04-01T02:02:27.052Z,102306.11
2019-04-01T02:04:58.257Z,102305.18
2019-04-01T02:07:29.477Z,102301.27
2019-04-01T02:10:00.708Z,102306.35
2019-04-01T02:12:31.935Z,102304.36
2019-04-01T02:15:03.103Z,102302.92
2019-04-01T02:17:34.329Z,102305.64
2019-04-01T02:20:06.206Z,102299.87
2019-04-01T02:22:37.332Z,102300.52
2019-04-01T02:25:08.545Z,102294.75
2019-04-01T02:27:39.735Z,102299.32
2019-04-01T02:30:11.046Z,102302.03
2019-04-01T02:32:42.202Z,102294.83
2019-04-01T02:35:13.394Z,102302.52
2019-04-01T02:37:44.638Z,102299.09
2019-04-01T02:40:15.978Z,102297.33
2019-04-01T02:42:47.049Z,102292.39
2019-04-01T02:45:18.312Z,102293.38
2019-04-01T02:47:49.503Z,102291.80
2019-04-01T02:50:20.818Z,102296.20
2019-04-01T02:52:51.994Z,102293.17
2019-04-01T02:55:23.229Z,102288.95
2019-04-01T02:57:54.465Z,102297.02
2019-04-01T03:00:25.825Z,102296.59
2019-04-01T03:02:57.026Z,102300.20
2019-04-01T03:05:28.335Z,102293.02
2019-04-01T03:07:59.504Z,102298.98
2019-04-01T03:10:30.674Z,102303.69
2019-04-01T03:13:01.843Z,102296.72
2019-04-01T03:15:33.273Z,102294.20
2019-04-01T03:18:04.425Z,102302.27
2019-04-01T03:20:35.684Z,102299.75
2019-04-01T03:23:06.898Z,102306.69
2019-04-01T03:25:38.078Z,102296.08
2019-04-01T03:28:09.206Z,102300.77
2019-04-01T03:30:40.365Z,102299.70
2019-04-01T03:33:11.651Z,102305.53
2019-04-01T03:35:42.838Z,102302.03
2019-04-01T03:38:14.013Z,102298.19
2019-04-01T03:40:45.148Z,102307.69
2019-04-01T03:43:16.525Z,102309.22
2019-04-01T03:45:47.654Z,102307.50
2019-04-01T03:48:18.835Z,102309.88
2019-04-01T03:50:51.823Z,102312.43
2019-04-01T03:53:22.976Z,102310.29
2019-04-01T03:55:54.261Z,102313.50
2019-04-01T03:58:25.444Z,102313.77
2019-04-01T04:00:56.613Z,102311.77
2019-04-01T04:03:27.899Z,102314.75
2019-04-01T04:05:59.068Z,102314.61
2019-04-01T04:08:30.209Z,102313.68
2019-04-01T04:11:01.462Z,102319.30
2019-04-01T04:13:32.605Z,102319.77
2019-04-01T04:16:03.776Z,102311.39
2019-04-01T04:18:34.926Z,102319.62
2019-04-01T04:21:06.113Z,102315.95
2019-04-01T04:23:37.211Z,102314.09
2019-04-01T04:26:08.390Z,102317.85
2019-04-01T04:28:39.591Z,102315.70
2019-04-01T04:31:10.794Z,102317.66
2019-04-01T04:33:41.969Z,102316.95
2019-04-01T04:36:13.180Z,102318.48
2019-04-01T04:38:44.374Z,102312.98
2019-04-01T04:41:15.518Z,102310.98
2019-04-01T04:43:46.813Z,102316.98
2019-04-01T04:46:21.007Z,102311.85
2019-04-01T04:48:50.840Z,102323.58
2019-04-01T04:51:22.049Z,102321.95
2019-04-01T04:53:53.159Z,102329.24
2019-04-01T04:56:25.405Z,102323.89
2019-04-01T04:58:56.582Z,102322.58
2019-04-01T05:01:27.711Z,102327.38
2019-04-01T05:03:58.855Z,102326.34
2019-04-01T05:06:30.123Z,102331.55
2019-04-01T05:09:01.284Z,102333.60
2019-04-01T05:11:33.810Z,102334.91
2019-04-01T05:14:05.037Z,102340.67
2019-04-01T05:16:36.184Z,102344.02
2019-04-01T05:19:07.404Z,102338.44
2019-04-01T05:21:40.613Z,102346.25
2019-04-01T05:24:11.888Z,102349.78
2019-04-01T05:26:45.135Z,102347.55
2019-04-01T05:29:16.450Z,102353.69
2019-04-01T05:31:47.849Z,102353.36
2019-04-01T05:34:20.607Z,102351.54
2019-04-01T05:36:51.731Z,102349.68
2019-04-01T05:39:22.894Z,102355.22
2019-04-01T05:41:54.024Z,102359.79
2019-04-01T05:44:25.128Z,102358.82
2019-04-01T05:46:56.389Z,102365.02
2019-04-01T05:49:27.758Z,102365.54
2019-04-01T05:51:58.958Z,102364.16
2019-04-01T05:54:30.080Z,102369.66
2019-04-01T05:57:01.253Z,102367.01
2019-04-01T05:59:32.452Z,102372.66
2019-04-01T06:02:05.131Z,102377.78
2019-04-01T06:04:36.339Z,102379.92
2019-04-01T06:07:07.500Z,102379.70
2019-04-01T06:09:38.832Z,102377.94
2019-04-01T06:12:10.078Z,102380.61
2019-04-01T06:14:41.182Z,102373.63
2019-04-01T06:17:13.326Z,102374.06
2019-04-01T06:19:44.414Z,102374.67
2019-04-01T06:22:16.259Z,102368.34
2019-04-01T06:24:47.352Z,102374.55
2019-04-01T06:27:18.705Z,102374.02
2019-04-01T06:29:49.907Z,102377.23
2019-04-01T06:32:21.069Z,102372.07
2019-04-01T06:34:53.213Z,102380.09
2019-04-01T06:37:24.544Z,102384.37
2019-04-01T06:39:55.787Z,102379.34
2019-04-01T06:42:27.045Z,102376.81
2019-04-01T06:44:58.260Z,102380.15
2019-04-01T06:47:29.685Z,102373.02
2019-04-01T06:50:01.158Z,102371.23
2019-04-01T06:52:32.488Z,102374.58
2019-04-01T06:55:03.753Z,102375.30
2019-04-01T06:57:35.231Z,102373.05
2019-04-01T07:00:06.761Z,102369.81
2019-04-01T07:02:38.238Z,102370.53
2019-04-01T07:05:12.359Z,102369.56
2019-04-01T07:07:43.899Z,102370.14
2019-04-01T07:10:15.527Z,102366.94
2019-04-01T07:12:47.064Z,102373.63
2019-04-01T07:15:18.698Z,102373.17
2019-04-01T07:17:49.964Z,102370.88
2019-04-01T07:20:21.258Z,102367.91
2019-04-01T07:22:52.550Z,102369.37
2019-04-01T07:25:23.805Z,102370.45
2019-04-01T07:27:55.094Z,102370.22
2019-04-01T07:30:26.299Z,102363.87
2019-04-01T07:32:57.580Z,102364.80
2019-04-01T07:35:28.882Z,102370.73
2019-04-01T07:38:00.248Z,102368.77
2019-04-01T07:40:31.535Z,102357.04
2019-04-01T07:43:02.788Z,102366.47
2019-04-01T07:45:35.209Z,102358.53
2019-04-01T07:48:06.453Z,102369.02
2019-04-01T07:50:37.736Z,102363.66
2019-04-01T07:53:08.967Z,102364.75
2019-04-01T07:55:40.205Z,102367.16
2019-04-01T07:58:11.718Z,102367.66
2019-04-01T08:00:42.975Z,102363.09
2019-04-01T08:03:14.230Z,102370.70
2019-04-01T08:05:45.590Z,102378.42
2019-04-01T08:08:18.433Z,102370.31
2019-04-01T08:10:49.941Z,102358.02
2019-04-01T08:13:21.246Z,102363.12
2019-04-01T08:15:52.524Z,102362.06
2019-04-01T08:18:23.916Z,102361.55
2019-04-01T08:20:55.214Z,102359.17
2019-04-01T08:23:26.470Z,102362.97
2019-04-01T08:25:57.675Z,102358.27
2019-04-01T08:28:29.165Z,102352.37
2019-04-01T08:31:00.558Z,102348.55
2019-04-01T08:33:32.323Z,102350.01
2019-04-01T08:36:03.640Z,102358.23
2019-04-01T08:38:34.959Z,102356.91
2019-04-01T08:41:06.313Z,102356.13
2019-04-01T08:43:37.496Z,102351.67
2019-04-01T08:46:08.810Z,102355.84
2019-04-01T08:48:41.342Z,102344.06
2019-04-01T08:51:14.430Z,102345.48
2019-04-01T08:53:45.916Z,102342.95
2019-04-01T08:56:17.126Z,102348.45
2019-04-01T08:58:48.358Z,102344.77
2019-04-01T09:01:34.215Z,102343.54
2019-04-01T09:03:52.733Z,102333.14
2019-04-01T09:06:23.981Z,102329.47
2019-04-01T09:08:55.191Z,102332.33
2019-04-01T09:11:26.464Z,102329.55
2019-04-01T09:13:57.879Z,102326.78
2019-04-01T09:16:29.130Z,102325.59
2019-04-01T09:19:01.375Z,102323.42
2019-04-01T09:21:32.752Z,102325.89
2019-04-01T09:24:05.062Z,102314.43
2019-04-01T09:26:36.380Z,102308.67
2019-04-01T09:29:07.799Z,102312.68
2019-04-01T09:31:39.052Z,102307.65
2019-04-01T09:34:10.325Z,102304.20
2019-04-01T09:36:41.581Z,102303.77
2019-04-01T09:39:12.829Z,102303.33
2019-04-01T09:41:44.134Z,102306.84
2019-04-01T09:44:15.404Z,102298.79
2019-04-01T09:46:48.939Z,102302.68
2019-04-01T09:49:20.669Z,102297.65
2019-04-01T09:51:51.874Z,102294.75
2019-04-01T09:54:24.912Z,102295.11
2019-04-01T09:56:56.155Z,102292.55
2019-04-01T09:59:27.523Z,102290.28
2019-04-01T10:01:58.750Z,102285.63
2019-04-01T10:04:30.084Z,102284.27
2019-04-01T10:07:01.395Z,102279.37
2019-04-01T10:09:33.883Z,102271.31
2019-04-01T10:12:05.202Z,102267.91
2019-04-01T10:14:37.709Z,102256.79
2019-04-01T10:17:08.927Z,102265.96
2019-04-01T10:19:40.236Z,102258.01
2019-04-01T10:22:11.468Z,102256.84
2019-04-01T10:24:42.725Z,102255.49
2019-04-01T10:27:14.935Z,102250.27
2019-04-01T10:29:46.208Z,102249.41
2019-04-01T10:32:17.531Z,102248.70
2019-04-01T10:34:48.815Z,102246.32
2019-04-01T10:37:20.136Z,102247.45
2019-04-01T10:39:51.381Z,102233.59
2019-04-01T10:42:22.894Z,102235.64
2019-04-01T10:44:54.158Z,102230.63
2019-04-01T10:47:25.586Z,102230.45
2019-04-01T10:49:56.959Z,102231.15
2019-04-01T10:52:28.261Z,102214.53
2019-04-01T10:54:59.693Z,102219.61
2019-04-01T10:57:31.005Z,102211.52
2019-04-01T11:00:02.308Z,102210.26
2019-04-01T11:02:33.649Z,102197.69
2019-04-01T11:05:05.559Z,102204.09
2019-04-01T11:07:36.912Z,102201.41
2019-04-01T11:10:11.424Z,102195.52
2019-04-01T11:12:41.591Z,102193.52
2019-04-01T11:15:15.809Z,102196.16
2019-04-01T11:17:47.355Z,102193.86
2019-04-01T11:20:18.682Z,102182.94
2019-04-01T11:22:49.952Z,102186.30
2019-04-01T11:25:21.750Z,102181.23
2019-04-01T11:27:52.975Z,102184.09
2019-04-01T11:30:24.253Z,102176.39
2019-04-01T11:32:55.556Z,102174.09
2019-04-01T11:35:26.800Z,102169.50
2019-04-01T11:37:58.189Z,102168.91
2019-04-01T11:40:29.397Z,102161.73
2019-04-01T11:43:04.685Z,102159.81
2019-04-01T11:45:33.790Z,102154.44
2019-04-01T11:48:06.235Z,102148.27
2019-04-01T11:50:37.580Z,102145.13
2019-04-01T11:53:08.836Z,102142.29
2019-04-01T11:55:41.356Z,102142.28
2019-04-01T11:58:12.695Z,102126.77
2019-04-01T12:00:44.025Z,102127.58
2019-04-01T12:03:15.185Z,102121.16
2019-04-01T12:05:46.437Z,102122.70
2019-04-01T12:08:17.886Z,102118.76
2019-04-01T12:10:49.139Z,102116.19
2019-04-01T12:13:20.600Z,102116.49
2019-04-01T12:15:51.839Z,102111.09
2019-04-01T12:18:23.113Z,102111.36
2019-04-01T12:20:55.434Z,102097.55
2019-04-01T12:23:26.715Z,102097.11
2019-04-01T12:26:13.903Z,102097.81
2019-04-01T12:28:32.015Z,102084.44
2019-04-01T12:31:04.460Z,102085.20
2019-04-01T12:33:36.752Z,102075.69
2019-04-01T12:36:11.429Z,102078.25
2019-04-01T12:38:42.246Z,102071.65
2019-04-01T12:41:13.504Z,102054.98
2019-04-01T12:43:44.845Z,102062.81
2019-04-01T12:46:16.232Z,102056.69
2019-04-01T12:48:47.361Z,102054.16
2019-04-01T12:51:18.541Z,102048.41
2019-04-01T12:53:49.746Z,102044.48
2019-04-01T12:56:20.920Z,102039.05
2019-04-01T12:58:52.151Z,102032.61
2019-04-01T13:01:24.498Z,102027.72
2019-04-01T13:03:56.824Z,102020.65
2019-04-01T13:06:27.989Z,102006.56
2019-04-01T13:08:59.227Z,102004.11
2019-04-01T13:11:30.377Z,101992.36
2019-04-01T13:14:01.583Z,101991.59
2019-04-01T13:16:32.738Z,101985.91
2019-04-01T13:19:03.937Z,101974.82
2019-04-01T13:21:35.134Z,101982.09
2019-04-01T13:24:06.229Z,101980.78
2019-04-01T13:26:38.545Z,101968.84
2019-04-01T13:29:09.750Z,101966.27
2019-04-01T13:31:40.957Z,101956.91
2019-04-01T13:34:12.121Z,101949.91
2019-04-01T13:36:43.278Z,101948.11
2019-04-01T13:39:14.498Z,101948.08
2019-04-01T13:41:45.925Z,101941.50
2019-04-01T13:44:18.093Z,101935.14
2019-04-01T13:46:50.656Z,101925.91
2019-04-01T13:49:21.927Z,101929.18
2019-04-01T13:51:54.192Z,101923.06
2019-04-01T13:54:25.390Z,101915.20
2019-04-01T13:56:56.503Z,101908.83
2019-04-01T13:59:27.645Z,101914.44
2019-04-01T14:01:59.036Z,101907.13
2019-04-01T14:04:33.429Z,101902.86
2019-04-01T14:07:04.597Z,101889.11
2019-04-01T14:09:35.879Z,101885.28
2019-04-01T14:12:07.037Z,101881.05
2019-04-01T14:14:38.242Z,101877.64
2019-04-01T14:17:09.624Z,101883.17
2019-04-01T14:19:41.920Z,101873.94
2019-04-01T14:22:13.098Z,101871.80
2019-04-01T14:24:45.260Z,101860.70
2019-04-01T14:27:16.823Z,101857.10
2019-04-01T14:29:48.091Z,101849.59
2019-04-01T14:32:19.394Z,101852.91
2019-04-01T14:34:50.763Z,101846.87
2019-04-01T14:37:25.599Z,101841.69
2019-04-01T14:39:54.933Z,101839.94
2019-04-01T14:42:26.121Z,101830.20
2019-04-01T14:45:00.214Z,101828.45
2019-04-01T14:47:32.507Z,101820.88
2019-04-01T14:50:07.479Z,101815.98
2019-04-01T14:52:37.053Z,101814.64
2019-04-01T14:55:08.265Z,101810.95
2019-04-01T14:57:39.455Z,101803.22
2019-04-01T15:00:14.712Z,101796.98
2019-04-01T15:02:45.864Z,101796.14
2019-04-01T15:05:17.099Z,101793.89
2019-04-01T15:07:48.284Z,101793.97
2019-04-01T15:10:19.749Z,101783.70
2019-04-01T15:13:04.496Z,101787.86
2019-04-01T15:15:23.872Z,101777.59
2019-04-01T15:17:55.140Z,101772.71
2019-04-01T15:20:26.495Z,101768.66
2019-04-01T15:22:57.841Z,101756.58
2019-04-01T15:25:29.003Z,101766.48
2019-04-01T15:28:00.175Z,101754.81
2019-04-01T15:30:32.083Z,101751.67
2019-04-01T15:33:03.445Z,101753.46
2019-04-01T15:35:34.580Z,101741.78
2019-04-01T15:38:05.809Z,101735.90
2019-04-01T15:40:37.121Z,101738.65
2019-04-01T15:43:08.361Z,101731.49
2019-04-01T15:45:39.598Z,101730.14
2019-04-01T15:48:10.750Z,101724.63
2019-04-01T15:50:41.970Z,101723.20
2019-04-01T15:53:13.101Z,101722.27
2019-04-01T15:55:44.363Z,101717.30
2019-04-01T15:58:15.557Z,101724.87
2019-04-01T16:00:46.697Z,101716.23
2019-04-01T16:03:18.003Z,101716.15
2019-04-01T16:05:49.216Z,101717.92
2019-04-01T16:08:20.398Z,101709.84
2019-04-01T16:10:51.545Z,101708.92
2019-04-01T16:13:22.796Z,101701.76
2019-04-01T16:15:54.031Z,101699.92
2019-04-01T16:18:26.391Z,101690.30
2019-04-01T16:20:59.394Z,101690.02
2019-04-01T16:23:30.387Z,101687.14
2019-04-01T16:26:01.670Z,101689.72
2019-04-01T16:28:32.804Z,101686.89
2019-04-01T16:31:04.306Z,101688.41
2019-04-01T16:33:35.510Z,101690.39
2019-04-01T16:36:07.636Z,101684.37
2019-04-01T16:38:38.965Z,101688.13
2019-04-01T16:41:10.143Z,101687.84
2019-04-01T16:43:41.361Z,101685.34
2019-04-01T16:46:12.663Z,101685.88
2019-04-01T16:48:46.376Z,101687.46
2019-04-01T16:51:16.830Z,101689.97
2019-04-01T16:53:48.077Z,101690.69
2019-04-01T16:56:19.208Z,101696.74
2019-04-01T16:58:50.371Z,101687.55
2019-04-01T17:01:23.166Z,101695.16
2019-04-01T17:03:54.455Z,101690.48
2019-04-01T17:06:26.755Z,101697.36
2019-04-01T17:08:57.952Z,101695.70
2019-04-01T17:11:30.128Z,101702.03
2019-04-01T17:14:02.152Z,101701.04
2019-04-01T17:16:34.409Z,101700.39
2019-04-01T17:19:05.732Z,101698.34
2019-04-01T17:21:36.882Z,101703.23
2019-04-01T17:24:08.040Z,101699.66
2019-04-01T17:27:09.810Z,101701.02
2019-04-01T17:29:42.112Z,101701.11
2019-04-01T17:32:13.286Z,101701.41
2019-04-01T17:34:44.975Z,101704.59
2019-04-01T17:37:16.342Z,101707.09
2019-04-01T17:39:47.530Z,101708.67
2019-04-01T17:42:18.796Z,101704.49
2019-04-01T17:44:55.408Z,101708.03
2019-04-01T17:47:27.440Z,101702.56
2019-04-01T17:49:59.379Z,101707.13
2019-04-01T17:52:31.483Z,101704.80
2019-04-01T17:55:02.659Z,101711.66
2019-04-01T17:57:34.383Z,101709.48
2019-04-01T18:00:09.342Z,101703.98
2019-04-01T18:02:40.703Z,101707.67
2019-04-01T18:05:15.260Z,101704.73
2019-04-01T18:07:46.650Z,101702.75
2019-04-01T18:10:18.241Z,101703.25
2019-04-01T18:12:50.072Z,101692.66
2019-04-01T18:15:25.290Z,101698.10
2019-04-01T18:17:57.241Z,101704.89
2019-04-01T18:20:28.651Z,101712.63
2019-04-01T18:23:00.138Z,101713.00
2019-04-01T18:25:31.785Z,101709.45
2019-04-01T18:28:03.075Z,101712.56
2019-04-01T18:30:35.241Z,101712.97
2019-04-01T18:33:07.035Z,101711.61
2019-04-01T18:35:38.600Z,101712.31
2019-04-01T18:38:10.116Z,101709.72
2019-04-01T18:40:41.557Z,101713.70
2019-04-01T18:43:12.967Z,101711.53
2019-04-01T18:45:45.718Z,101714.55
2019-04-01T18:48:17.133Z,101717.22
2019-04-01T18:50:48.339Z,101709.77
2019-04-01T18:53:19.621Z,101707.08
2019-04-01T18:55:52.835Z,101716.97
2019-04-01T18:58:24.294Z,101720.54
2019-04-01T19:00:56.459Z,101719.24
2019-04-01T19:03:27.615Z,101714.02
2019-04-01T19:05:59.935Z,101714.16
2019-04-01T19:08:31.059Z,101711.14
2019-04-01T19:11:02.797Z,101709.05
2019-04-01T19:13:34.276Z,101710.41
2019-04-01T19:16:06.914Z,101712.66
2019-04-01T19:18:39.745Z,101713.67
2019-04-01T19:21:11.147Z,101715.12
2019-04-01T19:23:42.463Z,101710.07
2019-04-01T19:26:13.636Z,101716.78
2019-04-01T19:28:47.072Z,101716.91
2019-04-01T19:31:18.649Z,101711.25
2019-04-01T19:33:49.847Z,101709.62
2019-04-01T19:36:21.124Z,101713.30
2019-04-01T19:38:54.306Z,101710.80
2019-04-01T19:41:25.661Z,101712.16
2019-04-01T19:43:57.208Z,101703.08
2019-04-01T19:46:28.695Z,101703.29
2019-04-01T19:49:00.195Z,101699.77
2019-04-01T19:51:35.852Z,101699.45
2019-04-01T19:54:06.307Z,101698.17
2019-04-01T19:56:37.810Z,101690.88
2019-04-01T19:59:09.037Z,101692.71
2019-04-01T20:01:40.305Z,101687.56
2019-04-01T20:04:11.820Z,101695.14
2019-04-01T20:06:43.358Z,101689.60
2019-04-01T20:09:14.961Z,101689.72
2019-04-01T20:11:46.221Z,101687.16
2019-04-01T20:14:17.661Z,101692.23
2019-04-01T20:16:49.845Z,101686.27
2019-04-01T20:19:21.057Z,101685.45
2019-04-01T20:21:52.276Z,101681.22
2019-04-01T20:24:24.040Z,101680.51
2019-04-01T20:26:55.485Z,101678.48
2019-04-01T20:29:29.994Z,101676.97
2019-04-01T20:31:59.827Z,101675.86
2019-04-01T20:34:32.272Z,101675.97
2019-04-01T20:37:03.766Z,101676.27
2019-04-01T20:39:35.659Z,101666.65
2019-04-01T20:42:07.379Z,101665.92
2019-04-01T20:44:39.062Z,101668.36
2019-04-01T20:47:10.613Z,101668.56
2019-04-01T20:49:42.268Z,101664.81
2019-04-01T20:52:13.919Z,101660.65
2019-04-01T20:54:45.797Z,101661.77
2019-04-01T20:57:17.710Z,101660.13
2019-04-01T20:59:49.057Z,101654.09
2019-04-01T21:02:20.543Z,101655.56
2019-04-01T21:04:52.720Z,101642.53
2019-04-01T21:07:25.423Z,101651.53
2019-04-01T21:09:57.162Z,101650.41
2019-04-01T21:12:28.586Z,101638.36
2019-04-01T21:15:01.292Z,101636.72
2019-04-01T21:17:32.791Z,101638.62
2019-04-01T21:20:04.962Z,101638.91
2019-04-01T21:22:37.286Z,101629.42
2019-04-01T21:25:10.711Z,101625.68
2019-04-01T21:27:41.996Z,101626.77
2019-04-01T21:30:13.976Z,101622.09
2019-04-01T21:32:45.314Z,101623.21
2019-04-01T21:35:16.836Z,101615.53
2019-04-01T21:37:48.046Z,101612.70
2019-04-01T21:40:19.383Z,101612.60
2019-04-01T21:42:51.564Z,101614.99
2019-04-01T21:45:23.127Z,101613.48
2019-04-01T21:47:54.283Z,101611.93
2019-04-01T21:50:25.498Z,101608.19
2019-04-01T21:52:56.699Z,101602.34
2019-04-01T21:55:27.838Z,101599.91
2019-04-01T21:57:59.074Z,101599.28
2019-04-01T22:00:48.248Z,101599.58
2019-04-01T22:03:19.583Z,101588.88
2019-04-01T22:05:50.751Z,101586.55
2019-04-01T22:08:21.910Z,101583.30
2019-04-01T22:10:53.111Z,101575.23
2019-04-01T22:13:24.300Z,101569.78
2019-04-01T22:15:55.420Z,101562.59
2019-04-01T22:18:26.619Z,101565.02
2019-04-01T22:20:57.936Z,101561.47
2019-04-01T22:23:29.100Z,101559.53
2019-04-01T22:26:00.309Z,101557.20
2019-04-01T22:28:31.419Z,101554.48
2019-04-01T22:31:02.718Z,101546.91
2019-04-01T22:33:33.843Z,101542.77
2019-04-01T22:36:05.049Z,101538.73
2019-04-01T22:38:36.219Z,101534.56
2019-04-01T22:41:07.428Z,101533.05
2019-04-01T22:43:38.565Z,101526.78
2019-04-01T22:46:09.708Z,101523.57
2019-04-01T22:48:40.864Z,101523.75
2019-04-01T22:51:12.002Z,101524.44
2019-04-01T22:53:43.175Z,101514.63
2019-04-01T22:56:14.354Z,101515.84
2019-04-01T22:58:45.653Z,101509.48
2019-04-01T23:01:16.829Z,101507.14
2019-04-01T23:03:48.050Z,101503.92
2019-04-01T23:06:19.246Z,101491.89
2019-04-01T23:08:50.383Z,101488.16
2019-04-01T23:11:21.536Z,101487.13
2019-04-01T23:13:52.686Z,101487.41
2019-04-01T23:16:23.836Z,101482.89
2019-04-01T23:18:55.119Z,101483.18
2019-04-01T23:21:26.259Z,101478.23
2019-04-01T23:23:59.111Z,101476.81
2019-04-01T23:26:30.342Z,101468.43
2019-04-01T23:29:02.593Z,101473.17
2019-04-01T23:31:33.729Z,101461.67
2019-04-01T23:34:04.894Z,101463.38
2019-04-01T23:36:36.065Z,101458.42
2019-04-01T23:39:07.944Z,101457.55
2019-04-01T23:41:39.115Z,101458.32
2019-04-01T23:44:10.267Z,101459.42
2019-04-01T23:46:42.493Z,101452.77
2019-04-01T23:49:13.652Z,101450.55
2019-04-01T23:51:44.851Z,101457.48
2019-04-01T23:54:16.008Z,101454.09
2019-04-01T23:56:47.228Z,101458.02
2019-04-01T23:59:19.188Z,101455.39
